createdAt,value
2022-09-27T00:02:08.491Z,7.60
2022-09-27T00:04:37.151Z,7.30
2022-09-27T00:07:06.169Z,6.90
2022-09-27T00:09:34.892Z,8.10
2022-09-27T00:12:03.918Z,7.20
2022-09-27T00:14:32.445Z,8.10
2022-09-27T00:17:00.860Z,8.90
2022-09-27T00:19:29.788Z,8.20
2022-09-27T00:21:58.310Z,8.90
2022-09-27T00:24:26.730Z,8.50
2022-09-27T00:26:55.246Z,7.70
2022-09-27T00:29:24.293Z,8.30
2022-09-27T00:31:52.797Z,6.80
2022-09-27T00:34:26.028Z,7.50
2022-09-27T00:36:55.674Z,7.80
2022-09-27T00:39:25.190Z,8.00
2022-09-27T00:41:53.712Z,8.00
2022-09-27T00:44:33.745Z,7.30
2022-09-27T00:47:10.892Z,7.50
2022-09-27T00:49:53.603Z,8.50
2022-09-27T00:52:31.682Z,9.20
2022-09-27T00:55:20.768Z,7.40
2022-09-27T00:57:50.409Z,6.80
2022-09-27T01:00:22.228Z,7.60
2022-09-27T01:02:55.096Z,6.90
2022-09-27T01:05:27.756Z,6.50
2022-09-27T01:08:00.979Z,7.40
2022-09-27T01:10:41.072Z,6.80
2022-09-27T01:13:37.400Z,7.10
2022-09-27T01:17:00.577Z,9.20
2022-09-27T01:19:51.584Z,10.20
2022-09-27T01:22:55.267Z,7.10
2022-09-27T01:25:50.215Z,7.30
2022-09-27T01:29:19.541Z,7.60
2022-09-27T01:32:14.953Z,7.90
2022-09-27T01:34:57.496Z,9.00
2022-09-27T01:40:40.491Z,8.20
2022-09-27T01:44:16.091Z,7.70
2022-09-27T01:46:56.602Z,7.60
2022-09-27T01:49:58.451Z,6.90
2022-09-27T01:52:50.670Z,8.80
2022-09-27T01:55:24.637Z,7.20
2022-09-27T01:58:41.596Z,6.20
2022-09-27T02:01:13.399Z,5.90
2022-09-27T02:03:49.362Z,6.00
2022-09-27T02:07:24.711Z,7.20
2022-09-27T02:10:18.052Z,7.30
2022-09-27T02:13:06.213Z,7.70
2022-09-27T02:15:55.832Z,6.90
2022-09-27T02:18:56.270Z,4.50
2022-09-27T02:21:36.424Z,6.10
2022-09-27T02:24:10.165Z,4.80
2022-09-27T02:26:45.719Z,5.90
2022-09-27T02:29:30.993Z,7.90
2022-09-27T02:31:59.706Z,4.90
2022-09-27T02:34:33.149Z,4.80
2022-09-27T02:37:01.902Z,5.20
2022-09-27T02:39:30.999Z,3.90
2022-09-27T02:42:06.409Z,6.30
2022-09-27T02:44:35.557Z,5.60
2022-09-27T02:47:40.408Z,5.10
2022-09-27T02:51:05.538Z,5.20
2022-09-27T02:54:05.267Z,4.60
2022-09-27T02:57:24.278Z,5.40
2022-09-27T03:00:15.852Z,4.10
2022-09-27T03:03:14.321Z,4.40
2022-09-27T03:06:04.253Z,3.40
2022-09-27T03:08:33.049Z,3.80
2022-09-27T03:11:01.640Z,5.10
2022-09-27T03:13:30.802Z,3.80
2022-09-27T03:16:01.685Z,5.10
2022-09-27T03:18:48.919Z,3.40
2022-09-27T03:22:04.064Z,3.50
2022-09-27T03:24:32.930Z,6.40
2022-09-27T03:27:01.701Z,3.30
2022-09-27T03:29:30.130Z,3.70
2022-09-27T03:32:04.744Z,4.40
2022-09-27T03:35:15.338Z,2.70
2022-09-27T03:40:12.183Z,7.10
2022-09-27T03:42:43.277Z,3.20
2022-09-27T03:45:15.055Z,3.20
2022-09-27T03:47:43.625Z,3.50
2022-09-27T03:50:12.876Z,3.70
2022-09-27T03:52:43.944Z,3.40
2022-09-27T03:55:13.854Z,3.70
2022-09-27T03:57:47.018Z,3.00
2022-09-27T04:00:20.331Z,3.90
2022-09-27T04:02:48.942Z,3.90
2022-09-27T04:05:28.939Z,1.90
2022-09-27T04:08:11.202Z,3.00
2022-09-27T04:10:39.883Z,3.00
2022-09-27T04:13:08.579Z,3.50
2022-09-27T04:15:44.981Z,1.70
2022-09-27T04:18:33.903Z,2.00
2022-09-27T04:21:14.711Z,1.70
2022-09-27T04:23:49.015Z,2.90
2022-09-27T04:26:18.761Z,3.10
2022-09-27T04:28:54.851Z,2.00
2022-09-27T04:31:23.776Z,2.90
2022-09-27T04:33:56.929Z,3.90
2022-09-27T04:36:29.020Z,3.20
2022-09-27T04:39:07.904Z,1.90
2022-09-27T04:41:38.996Z,2.50
2022-09-27T04:44:07.473Z,2.40
2022-09-27T04:46:36.120Z,2.00
2022-09-27T04:49:04.565Z,2.60
2022-09-27T04:51:34.475Z,2.50
2022-09-27T04:54:02.905Z,4.20
2022-09-27T04:56:33.622Z,3.00
2022-09-27T04:59:02.608Z,4.70
2022-09-27T05:01:32.143Z,3.70
2022-09-27T05:04:00.496Z,2.40
2022-09-27T05:06:29.636Z,2.70
2022-09-27T05:09:00.416Z,3.30
2022-09-27T05:11:31.590Z,5.80
2022-09-27T05:14:29.023Z,1.90
2022-09-27T05:17:38.400Z,4.50
2022-09-27T05:21:05.902Z,4.30
2022-09-27T05:23:41.953Z,4.60
2022-09-27T05:26:12.189Z,5.60
2022-09-27T05:28:44.245Z,5.60
2022-09-27T05:33:42.894Z,5.40
2022-09-27T05:36:26.146Z,6.50
2022-09-27T05:38:54.568Z,7.90
2022-09-27T05:41:24.270Z,6.60
2022-09-27T05:43:52.795Z,9.90
2022-09-27T05:46:21.388Z,11.50
2022-09-27T05:48:49.820Z,12.00
2022-09-27T05:51:19.489Z,9.50
2022-09-27T05:53:48.150Z,9.10
2022-09-27T05:56:22.904Z,8.60
2022-09-27T05:59:41.476Z,5.60
2022-09-27T06:02:21.931Z,4.70
2022-09-27T06:05:09.615Z,5.00
2022-09-27T06:07:48.578Z,4.30
2022-09-27T06:10:25.679Z,4.80
2022-09-27T06:12:54.227Z,4.50
2022-09-27T06:15:46.808Z,5.10
2022-09-27T06:18:18.287Z,4.30
2022-09-27T06:20:49.335Z,5.00
2022-09-27T06:23:23.778Z,5.50
2022-09-27T06:25:54.495Z,3.90
2022-09-27T06:28:27.553Z,3.50
2022-09-27T06:31:00.647Z,3.60
2022-09-27T06:34:10.358Z,3.60
2022-09-27T06:36:38.818Z,4.90
2022-09-27T06:39:07.402Z,4.60
2022-09-27T06:41:45.152Z,5.00
2022-09-27T06:44:51.608Z,3.80
2022-09-27T06:47:39.201Z,7.40
2022-09-27T06:51:07.134Z,12.90
2022-09-27T06:53:35.861Z,23.90
2022-09-27T06:56:04.374Z,14.50
2022-09-27T06:59:02.194Z,6.20
2022-09-27T07:04:55.140Z,3.90
2022-09-27T07:07:43.129Z,3.10
2022-09-27T07:10:12.649Z,3.70
2022-09-27T07:12:41.879Z,4.00
2022-09-27T07:15:11.404Z,3.90
2022-09-27T07:17:40.432Z,4.30
2022-09-27T07:20:10.454Z,4.40
2022-09-27T07:22:44.284Z,4.10
2022-09-27T07:25:13.620Z,4.30
2022-09-27T07:27:42.207Z,4.30
2022-09-27T07:30:13.999Z,4.00
2022-09-27T07:32:43.803Z,4.00
2022-09-27T07:35:15.637Z,6.00
2022-09-27T07:37:45.562Z,4.70
2022-09-27T07:40:15.411Z,4.40
2022-09-27T07:42:44.218Z,4.90
2022-09-27T07:45:13.326Z,6.10
2022-09-27T07:48:41.359Z,4.10
2022-09-27T07:51:35.170Z,3.90
2022-09-27T07:54:18.485Z,4.00
2022-09-27T07:57:06.324Z,3.80
2022-09-27T07:59:45.509Z,3.50
2022-09-27T08:04:49.663Z,3.60
2022-09-27T08:09:51.228Z,4.40
2022-09-27T08:12:23.919Z,4.80
2022-09-27T08:14:52.781Z,4.30
2022-09-27T08:17:21.300Z,3.80
2022-09-27T08:20:09.191Z,3.60
2022-09-27T08:22:49.660Z,2.90
2022-09-27T08:25:44.316Z,3.10
2022-09-27T08:28:29.957Z,3.60
2022-09-27T08:31:18.559Z,2.70
2022-09-27T08:33:53.317Z,2.90
2022-09-27T08:36:24.423Z,3.90
2022-09-27T08:38:54.451Z,4.20
2022-09-27T08:41:40.430Z,4.10
2022-09-27T08:44:26.247Z,2.90
2022-09-27T08:47:12.510Z,3.60
2022-09-27T08:49:55.856Z,4.30
2022-09-27T08:52:48.977Z,4.10
2022-09-27T08:55:40.986Z,5.40
2022-09-27T08:58:22.408Z,3.70
2022-09-27T09:00:55.571Z,5.20
2022-09-27T09:03:31.051Z,4.50
2022-09-27T09:06:11.796Z,3.60
2022-09-27T09:09:02.063Z,4.90
2022-09-27T09:15:16.753Z,4.10
2022-09-27T09:18:10.026Z,4.20
2022-09-27T09:22:15.481Z,3.80
2022-09-27T09:25:23.123Z,4.20
2022-09-27T09:28:10.431Z,5.80
2022-09-27T09:31:05.368Z,4.60
2022-09-27T09:33:57.158Z,3.80
2022-09-27T09:36:38.642Z,3.50
2022-09-27T09:39:31.096Z,4.80
2022-09-27T09:42:08.417Z,4.20
2022-09-27T09:45:18.321Z,3.80
2022-09-27T09:48:05.486Z,4.40
2022-09-27T09:50:54.714Z,3.30
2022-09-27T09:53:58.352Z,4.20
2022-09-27T09:56:47.777Z,4.10
2022-09-27T09:59:27.133Z,3.60
2022-09-27T10:02:08.820Z,3.40
2022-09-27T10:04:37.501Z,4.50
2022-09-27T10:07:06.840Z,4.50
2022-09-27T10:09:36.860Z,5.00
2022-09-27T10:12:23.769Z,6.00
2022-09-27T10:14:54.434Z,4.60
2022-09-27T10:17:30.192Z,5.90
2022-09-27T10:19:59.966Z,8.00
2022-09-27T10:22:54.592Z,4.10
2022-09-27T10:26:00.457Z,4.30
2022-09-27T10:29:37.313Z,3.50
2022-09-27T10:32:25.637Z,4.00
2022-09-27T10:35:33.335Z,3.70
2022-09-27T10:38:28.605Z,3.00
2022-09-27T10:41:17.072Z,3.40
2022-09-27T10:43:45.652Z,3.90
2022-09-27T10:46:34.918Z,3.20
2022-09-27T10:49:32.223Z,3.00
2022-09-27T10:52:21.949Z,6.00
2022-09-27T10:54:57.802Z,4.80
2022-09-27T10:57:30.387Z,5.20
2022-09-27T11:00:31.514Z,3.60
2022-09-27T11:03:07.443Z,4.90
2022-09-27T11:05:39.757Z,4.10
2022-09-27T11:08:28.682Z,3.00
2022-09-27T11:11:23.859Z,2.90
2022-09-27T11:14:04.757Z,5.90
2022-09-27T11:17:04.949Z,3.20
2022-09-27T11:19:45.523Z,3.00
2022-09-27T11:23:03.164Z,4.10
2022-09-27T11:25:51.230Z,3.60
2022-09-27T11:29:03.753Z,2.50
2022-09-27T11:32:53.370Z,3.50
2022-09-27T11:35:52.623Z,3.70
2022-09-27T11:38:54.849Z,4.10
2022-09-27T11:41:37.055Z,2.90
2022-09-27T11:44:41.309Z,2.80
2022-09-27T11:47:41.940Z,3.00
2022-09-27T11:50:56.825Z,3.20
2022-09-27T11:53:53.505Z,2.60
2022-09-27T11:56:49.171Z,2.10
2022-09-27T11:59:37.619Z,4.30
2022-09-27T12:02:21.014Z,2.70
2022-09-27T12:05:29.310Z,3.10
2022-09-27T12:08:35.550Z,2.40
2022-09-27T12:11:28.322Z,3.30
2022-09-27T12:14:07.609Z,2.20
2022-09-27T12:16:39.241Z,3.20
2022-09-27T12:19:19.906Z,3.90
2022-09-27T12:21:57.565Z,5.20
2022-09-27T12:24:27.054Z,3.10
2022-09-27T12:28:00.553Z,3.00
2022-09-27T12:30:34.438Z,3.00
2022-09-27T12:33:16.904Z,2.60
2022-09-27T12:35:53.657Z,3.10
2022-09-27T12:38:36.100Z,2.60
2022-09-27T12:41:11.359Z,2.40
2022-09-27T12:43:50.994Z,2.60
2022-09-27T12:46:43.926Z,3.80
2022-09-27T12:49:15.375Z,2.80
2022-09-27T12:52:02.781Z,2.50
2022-09-27T12:55:22.809Z,2.40
2022-09-27T12:58:43.889Z,2.90
2022-09-27T13:01:57.780Z,1.90
2022-09-27T13:04:46.898Z,2.20
2022-09-27T13:07:34.486Z,4.40
2022-09-27T13:10:45.349Z,2.50
2022-09-27T13:13:37.872Z,3.00
2022-09-27T13:16:08.646Z,2.30
2022-09-27T13:19:03.095Z,3.80
2022-09-27T13:21:47.599Z,2.70
2022-09-27T13:24:51.873Z,4.70
2022-09-27T13:28:33.705Z,2.20
2022-09-27T13:31:15.968Z,4.40
2022-09-27T13:33:55.135Z,2.40
2022-09-27T13:36:30.613Z,3.70
2022-09-27T13:39:11.940Z,4.50
2022-09-27T13:42:39.496Z,2.80
2022-09-27T13:45:29.431Z,2.70
2022-09-27T13:47:59.710Z,2.90
2022-09-27T13:50:37.238Z,2.20
2022-09-27T13:53:33.881Z,2.40
2022-09-27T13:56:04.807Z,2.40
2022-09-27T13:59:01.765Z,4.80
2022-09-27T14:02:21.353Z,4.50
2022-09-27T14:04:52.861Z,3.20
2022-09-27T14:07:41.546Z,3.50
2022-09-27T14:10:23.107Z,2.80
2022-09-27T14:12:53.625Z,6.20
2022-09-27T14:15:29.796Z,3.20
2022-09-27T14:17:59.632Z,4.00
2022-09-27T14:20:38.882Z,5.30
2022-09-27T14:23:25.784Z,6.50
2022-09-27T14:25:56.729Z,8.00
2022-09-27T14:28:26.764Z,4.80
2022-09-27T14:31:39.041Z,5.20
2022-09-27T14:34:11.224Z,2.80
2022-09-27T14:37:03.698Z,3.00
2022-09-27T14:39:37.978Z,4.00
2022-09-27T14:42:33.189Z,3.20
2022-09-27T14:45:06.515Z,4.30
2022-09-27T14:47:34.852Z,3.70
2022-09-27T14:50:24.562Z,5.30
2022-09-27T14:52:56.357Z,5.00
2022-09-27T14:55:30.356Z,4.70
2022-09-27T14:58:03.086Z,3.30
2022-09-27T15:00:37.292Z,5.00
2022-09-27T15:03:10.396Z,2.80
2022-09-27T15:05:43.181Z,2.70
2022-09-27T15:08:13.180Z,2.40
2022-09-27T15:10:42.421Z,2.70
2022-09-27T15:13:18.691Z,3.30
2022-09-27T15:15:48.989Z,3.60
2022-09-27T15:18:42.644Z,3.90
2022-09-27T15:21:27.906Z,6.40
2022-09-27T15:23:59.493Z,8.40
2022-09-27T15:29:24.791Z,5.40
2022-09-27T15:32:08.400Z,5.90
2022-09-27T15:34:37.367Z,8.10
2022-09-27T15:37:06.722Z,7.40
2022-09-27T15:39:40.536Z,10.50
2022-09-27T15:42:17.425Z,8.40
2022-09-27T15:44:52.939Z,9.60
2022-09-27T15:47:37.781Z,5.70
2022-09-27T15:50:15.508Z,8.30
2022-09-27T15:52:55.726Z,6.60
2022-09-27T15:55:29.578Z,6.80
2022-09-27T15:58:05.869Z,8.20
2022-09-27T16:00:38.368Z,9.30
2022-09-27T16:03:06.737Z,9.20
2022-09-27T16:05:35.054Z,7.70
2022-09-27T16:08:03.487Z,9.70
2022-09-27T16:10:53.443Z,7.00
2022-09-27T16:13:25.284Z,7.30
2022-09-27T16:15:55.329Z,5.50
2022-09-27T16:18:28.214Z,9.80
2022-09-27T16:21:04.291Z,9.50
2022-09-27T16:23:34.047Z,7.00
2022-09-27T16:26:02.509Z,6.40
2022-09-27T16:28:31.633Z,7.90
2022-09-27T16:31:06.273Z,8.30
2022-09-27T16:33:36.014Z,8.40
2022-09-27T16:36:16.287Z,5.70
2022-09-27T16:38:47.941Z,6.50
2022-09-27T16:41:16.642Z,5.60
2022-09-27T16:43:47.990Z,7.90
2022-09-27T16:46:19.252Z,6.90
2022-09-27T16:48:49.261Z,7.20
2022-09-27T16:51:39.424Z,9.00
2022-09-27T16:54:08.841Z,6.60
2022-09-27T16:56:37.577Z,7.20
2022-09-27T16:59:07.175Z,6.30
2022-09-27T17:01:35.771Z,8.50
2022-09-27T17:04:04.320Z,6.60
2022-09-27T17:06:34.749Z,6.10
2022-09-27T17:09:04.519Z,6.20
2022-09-27T17:11:33.775Z,6.70
2022-09-27T17:14:02.125Z,5.50
2022-09-27T17:16:31.321Z,7.90
2022-09-27T17:18:59.770Z,5.40
2022-09-27T17:21:28.489Z,8.40
2022-09-27T17:23:57.021Z,5.70
2022-09-27T17:26:27.040Z,7.40
2022-09-27T17:28:57.441Z,6.20
2022-09-27T17:31:26.568Z,5.50
2022-09-27T17:33:57.786Z,5.30
2022-09-27T17:36:30.108Z,8.00
2022-09-27T17:39:01.525Z,6.10
2022-09-27T17:41:30.414Z,5.90
2022-09-27T17:44:01.509Z,11.40
2022-09-27T17:46:35.733Z,6.00
2022-09-27T17:49:23.573Z,8.70
2022-09-27T17:51:53.887Z,11.70
2022-09-27T17:54:25.239Z,15.00
2022-09-27T17:56:54.155Z,8.20
2022-09-27T17:59:23.185Z,7.70
2022-09-27T18:01:52.013Z,5.70
2022-09-27T18:04:20.727Z,7.30
2022-09-27T18:06:49.204Z,5.80
2022-09-27T18:09:18.840Z,5.80
2022-09-27T18:11:47.396Z,7.50
2022-09-27T18:14:15.999Z,6.40
2022-09-27T18:16:45.029Z,7.30
2022-09-27T18:19:17.134Z,10.10
2022-09-27T18:21:45.729Z,9.70
2022-09-27T18:24:15.032Z,13.40
2022-09-27T18:26:44.306Z,8.70
2022-09-27T18:29:16.953Z,10.10
2022-09-27T18:31:48.685Z,8.30
2022-09-27T18:34:18.696Z,8.10
2022-09-27T18:36:47.465Z,7.70
2022-09-27T18:39:21.326Z,6.50
2022-09-27T18:41:50.332Z,6.40
2022-09-27T18:44:19.784Z,5.90
2022-09-27T18:46:48.545Z,7.60
2022-09-27T18:49:17.636Z,8.00
2022-09-27T18:51:47.926Z,8.70
2022-09-27T18:54:20.913Z,5.90
2022-09-27T18:56:52.466Z,6.40
2022-09-27T18:59:21.724Z,5.40
2022-09-27T19:01:50.717Z,6.10
2022-09-27T19:04:24.243Z,7.50
2022-09-27T19:06:55.809Z,8.60
2022-09-27T19:09:26.866Z,9.20
2022-09-27T19:11:55.264Z,8.70
2022-09-27T19:14:23.704Z,9.60
2022-09-27T19:16:52.314Z,13.30
2022-09-27T19:19:21.036Z,20.00
2022-09-27T19:21:49.559Z,34.60
2022-09-27T19:24:19.205Z,54.50
2022-09-27T19:26:47.810Z,63.20
2022-09-27T19:29:16.419Z,72.90
2022-09-27T19:31:45.004Z,69.50
2022-09-27T19:34:13.577Z,58.50
2022-09-27T19:36:41.913Z,79.10
2022-09-27T19:39:10.720Z,66.90
2022-09-27T19:41:40.540Z,73.80
2022-09-27T19:44:09.603Z,89.40
2022-09-27T19:46:38.135Z,98.70
2022-09-27T19:49:06.905Z,91.90
2022-09-27T19:51:35.229Z,79.00
2022-09-27T19:54:04.450Z,69.60
2022-09-27T19:56:32.872Z,78.20
2022-09-27T19:59:06.284Z,82.70
2022-09-27T20:01:35.919Z,59.90
2022-09-27T20:04:04.465Z,57.50
2022-09-27T20:06:33.414Z,62.60
2022-09-27T20:09:04.917Z,53.30
2022-09-27T20:11:35.046Z,53.80
2022-09-27T20:14:03.571Z,41.60
2022-09-27T20:16:32.239Z,44.00
2022-09-27T20:19:02.010Z,41.00
2022-09-27T20:21:32.896Z,40.50
2022-09-27T20:24:03.141Z,33.40
2022-09-27T20:26:34.624Z,41.90
2022-09-27T20:29:05.036Z,36.00
2022-09-27T20:31:37.960Z,36.30
2022-09-27T20:34:08.080Z,40.40
2022-09-27T20:36:39.886Z,43.20
2022-09-27T20:39:14.930Z,47.10
2022-09-27T20:41:46.485Z,58.50
2022-09-27T20:44:21.463Z,60.80
2022-09-27T20:46:49.994Z,69.90
2022-09-27T20:49:19.335Z,73.20
2022-09-27T20:51:48.813Z,75.50
2022-09-27T20:54:18.336Z,75.20
2022-09-27T20:56:48.830Z,85.70
2022-09-27T20:59:23.225Z,67.50
2022-09-27T21:01:53.689Z,67.70
2022-09-27T21:04:23.572Z,68.70
2022-09-27T21:06:52.797Z,72.40
2022-09-27T21:09:21.235Z,64.80
2022-09-27T21:11:52.214Z,73.60
2022-09-27T21:14:20.873Z,68.60
2022-09-27T21:16:49.490Z,63.20
2022-09-27T21:19:17.907Z,65.70
2022-09-27T21:21:46.438Z,58.70
2022-09-27T21:24:15.164Z,62.90
2022-09-27T21:26:43.784Z,63.00
2022-09-27T21:29:13.910Z,61.40
2022-09-27T21:31:43.183Z,56.50
2022-09-27T21:34:11.851Z,47.80
2022-09-27T21:36:40.372Z,39.50
2022-09-27T21:39:10.269Z,38.30
2022-09-27T21:41:39.401Z,37.00
2022-09-27T21:44:10.155Z,38.60
2022-09-27T21:46:42.106Z,30.00
2022-09-27T22:01:25.073Z,24.90
2022-09-27T22:03:55.676Z,26.30
2022-09-27T22:06:28.131Z,24.00
2022-09-27T22:08:58.151Z,25.30
2022-09-27T22:11:31.118Z,21.60
2022-09-27T22:14:00.647Z,20.50
2022-09-27T22:16:32.467Z,20.70
2022-09-27T22:19:01.309Z,21.30
2022-09-27T22:21:33.785Z,23.40
2022-09-27T22:24:12.239Z,23.30
2022-09-27T22:26:42.715Z,18.40
2022-09-27T22:29:11.192Z,17.20
2022-09-27T22:31:39.683Z,18.10
2022-09-27T22:34:17.210Z,18.30
2022-09-27T22:36:45.562Z,20.00
2022-09-27T22:39:14.303Z,20.90
2022-09-27T22:41:43.289Z,22.50
2022-09-27T22:44:11.845Z,22.60
2022-09-27T22:46:40.367Z,21.90
2022-09-27T22:49:09.034Z,20.90
2022-09-27T22:51:37.751Z,20.00
2022-09-27T22:54:06.403Z,19.00
2022-09-27T22:56:34.707Z,19.60
2022-09-27T22:59:03.408Z,19.80
2022-09-27T23:01:31.831Z,20.90
2022-09-27T23:04:00.371Z,19.60
2022-09-27T23:06:28.757Z,21.00
2022-09-27T23:08:58.346Z,19.50
2022-09-27T23:11:26.920Z,20.30
2022-09-27T23:13:57.449Z,20.70
2022-09-27T23:16:25.900Z,18.00
2022-09-27T23:18:56.858Z,17.20
2022-09-27T23:21:26.836Z,19.80
2022-09-27T23:23:57.797Z,20.40
2022-09-27T23:26:28.457Z,22.60
2022-09-27T23:29:02.623Z,20.30
2022-09-27T23:31:32.925Z,20.20
2022-09-27T23:34:04.805Z,20.60
2022-09-27T23:36:34.565Z,23.40
2022-09-27T23:39:03.038Z,20.10
2022-09-27T23:41:31.346Z,20.80
2022-09-27T23:43:59.745Z,17.70
2022-09-27T23:46:29.065Z,16.40
2022-09-27T23:48:59.000Z,14.60
2022-09-27T23:51:27.354Z,17.80
2022-09-27T23:53:57.990Z,14.50
2022-09-27T23:56:26.609Z,15.50
2022-09-27T23:58:54.930Z,18.70
